Time;durP1;ratioP1;P1;durP2;ratioP2;P2;SDS_P1;SDS_P2;PMS_P1;PMS_P2;Temp;Humidity;BMP_temperature;BMP_pressure;BME280_temperature;BME280_humidity;BME280_pressure;Samples;Min_cycle;Max_cycle;Signal;HPM_P1;HPM_P2
2023/12/13 00:02:25;;;;;;;7.10;2.65;;;8.00;99.90;;;;;;5000522;28;20073;-72
2023/12/13 00:04:50;;;;;;;10.35;3.13;;;8.00;99.90;;;;;;4989206;28;20472;-71
2023/12/13 00:07:16;;;;;;;7.38;2.90;;;8.10;99.90;;;;;;5002136;28;20050;-72
2023/12/13 00:09:42;;;;;;;8.18;2.30;;;8.00;99.90;;;;;;4988120;28;20042;-72
2023/12/13 00:12:08;;;;;;;4.72;2.15;;;8.00;99.90;;;;;;5002949;28;20061;-72
2023/12/13 00:14:33;;;;;;;9.45;4.05;;;8.00;99.90;;;;;;5004752;28;20042;-72
2023/12/13 00:16:59;;;;;;;5.03;1.83;;;8.00;99.90;;;;;;5000996;28;20046;-72
2023/12/13 00:19:25;;;;;;;7.75;2.78;;;8.00;99.90;;;;;;5006623;28;20084;-72
2023/12/13 00:21:50;;;;;;;8.02;2.35;;;8.00;99.90;;;;;;5004576;28;20041;-72
2023/12/13 00:24:16;;;;;;;6.35;2.17;;;8.00;99.90;;;;;;5003791;28;20459;-71
2023/12/13 00:26:42;;;;;;;9.52;3.38;;;8.00;99.90;;;;;;5005459;28;20479;-72
2023/12/13 00:29:08;;;;;;;5.55;2.40;;;8.00;99.90;;;;;;5004253;28;20491;-72
2023/12/13 00:31:34;;;;;;;6.72;2.13;;;8.00;99.90;;;;;;5003746;28;22045;-72
2023/12/13 00:34:00;;;;;;;4.65;2.00;;;8.00;99.90;;;;;;5019988;28;20034;-71
2023/12/13 00:36:26;;;;;;;4.05;2.28;;;8.00;99.90;;;;;;4989504;28;20661;-71
2023/12/13 00:38:51;;;;;;;5.65;2.25;;;8.00;99.90;;;;;;5002451;28;20041;-71
2023/12/13 00:41:17;;;;;;;6.35;2.58;;;8.10;99.90;;;;;;5004917;28;20050;-71
2023/12/13 00:43:43;;;;;;;8.90;2.85;;;8.00;99.90;;;;;;5003841;28;20083;-71
2023/12/13 00:46:22;;;;;;;6.03;1.92;;;8.00;99.90;;;;;;5006084;28;20079;-71
2023/12/13 00:48:49;;;;;;;4.78;2.45;;;8.00;99.90;;;;;;5018739;28;20030;-71
2023/12/13 00:51:18;;;;;;;8.45;3.33;;;8.00;99.90;;;;;;4988708;28;20038;-71
2023/12/13 00:53:44;;;;;;;4.20;2.20;;;8.00;99.90;;;;;;5002806;28;20041;-72
2023/12/13 00:56:10;;;;;;;8.07;2.42;;;8.10;99.90;;;;;;5002962;28;20038;-71
2023/12/13 00:58:36;;;;;;;10.50;3.20;;;8.10;99.90;;;;;;5004250;28;20037;-71
2023/12/13 01:01:01;;;;;;;5.93;2.47;;;8.10;99.90;;;;;;5001877;28;20040;-71
2023/12/13 01:03:27;;;;;;;7.00;2.72;;;8.00;99.90;;;;;;5002424;28;20057;-71
2023/12/13 01:05:52;;;;;;;8.60;3.33;;;8.00;99.90;;;;;;5004577;28;20517;-71
2023/12/13 01:08:18;;;;;;;4.30;2.40;;;8.00;99.90;;;;;;5002751;28;20034;-72
2023/12/13 01:10:44;;;;;;;9.38;2.92;;;8.00;99.90;;;;;;5002923;28;20446;-71
2023/12/13 01:13:10;;;;;;;11.73;2.63;;;8.00;99.90;;;;;;5003389;28;20030;-72
2023/12/13 01:15:36;;;;;;;7.97;3.63;;;8.00;99.90;;;;;;5001970;28;20041;-72
2023/12/13 01:18:03;;;;;;;7.60;3.35;;;8.00;99.90;;;;;;5003878;28;20074;-72
2023/12/13 01:20:29;;;;;;;6.90;2.97;;;8.00;99.90;;;;;;4984855;28;20092;-72
2023/12/13 01:22:54;;;;;;;7.38;2.70;;;8.00;99.90;;;;;;4999924;28;20059;-72
2023/12/13 01:25:20;;;;;;;8.32;2.85;;;8.00;99.90;;;;;;5003299;28;20042;-71
2023/12/13 01:27:45;;;;;;;6.47;2.83;;;8.00;99.90;;;;;;5008072;28;20073;-72
2023/12/13 01:30:11;;;;;;;10.15;3.10;;;8.00;99.90;;;;;;5008389;28;20088;-71
2023/12/13 01:32:37;;;;;;;11.20;3.17;;;7.90;99.90;;;;;;5008376;28;20112;-71
2023/12/13 01:35:04;;;;;;;9.98;3.25;;;7.90;99.90;;;;;;5005971;28;20560;-71
2023/12/13 01:37:30;;;;;;;10.05;3.45;;;7.90;99.90;;;;;;5001375;28;20797;-72
2023/12/13 01:39:56;;;;;;;7.55;3.72;;;7.90;99.90;;;;;;5003515;28;20084;-72
2023/12/13 01:42:26;;;;;;;6.50;3.47;;;7.90;99.90;;;;;;4988043;28;20125;-71
2023/12/13 01:44:51;;;;;;;6.95;3.08;;;7.90;99.90;;;;;;5002639;28;20042;-72
2023/12/13 01:47:18;;;;;;;6.93;3.10;;;7.90;99.90;;;;;;4986453;28;20388;-72
2023/12/13 01:49:45;;;;;;;7.00;2.85;;;7.90;99.90;;;;;;5005370;28;20566;-71
2023/12/13 01:52:12;;;;;;;8.05;4.20;;;7.90;99.90;;;;;;4996609;28;20694;-72
2023/12/13 01:54:38;;;;;;;7.90;2.80;;;8.00;99.90;;;;;;5003605;28;20120;-72
2023/12/13 01:57:05;;;;;;;8.13;2.25;;;7.90;99.90;;;;;;5003237;28;20037;-72
2023/12/13 01:59:33;;;;;;;4.50;1.92;;;8.00;99.90;;;;;;5020185;28;20048;-72
2023/12/13 02:02:00;;;;;;;8.25;2.65;;;7.90;99.90;;;;;;5000541;28;20057;-72
2023/12/13 02:04:27;;;;;;;7.38;2.72;;;8.00;99.90;;;;;;5002045;28;20497;-72
2023/12/13 02:06:53;;;;;;;7.65;2.55;;;7.90;99.90;;;;;;5001832;28;20099;-72
2023/12/13 02:09:19;;;;;;;11.27;3.22;;;7.90;99.90;;;;;;5002147;28;20038;-72
2023/12/13 02:11:45;;;;;;;7.35;2.50;;;7.90;99.90;;;;;;5002295;28;20103;-72
2023/12/13 02:14:11;;;;;;;10.18;2.72;;;7.90;99.90;;;;;;5000513;28;20139;-72
2023/12/13 02:16:37;;;;;;;8.77;3.35;;;7.90;99.90;;;;;;5001982;28;20511;-72
2023/12/13 02:19:03;;;;;;;6.47;2.50;;;8.00;99.90;;;;;;5002032;28;20046;-72
2023/12/13 02:21:30;;;;;;;5.32;2.33;;;7.90;99.90;;;;;;5001702;28;20116;-72
2023/12/13 02:24:00;;;;;;;7.32;2.00;;;7.90;99.90;;;;;;5001541;28;20042;-72
2023/12/13 02:26:26;;;;;;;6.28;2.42;;;7.90;99.90;;;;;;4999163;28;20073;-72
2023/12/13 02:28:54;;;;;;;6.32;2.45;;;7.90;99.90;;;;;;5002440;28;20467;-72
2023/12/13 02:31:21;;;;;;;6.57;2.28;;;7.90;99.90;;;;;;5002187;28;20070;-72
2023/12/13 02:33:46;;;;;;;3.45;1.75;;;7.90;99.90;;;;;;5001747;28;20061;-72
2023/12/13 02:36:12;;;;;;;6.18;2.38;;;8.00;99.90;;;;;;5003407;28;20514;-72
2023/12/13 02:38:40;;;;;;;4.25;1.38;;;7.90;99.90;;;;;;5000048;28;20494;-72
2023/12/13 02:41:07;;;;;;;4.28;1.67;;;7.90;99.90;;;;;;5007379;28;20038;-72
2023/12/13 02:43:32;;;;;;;6.85;2.13;;;7.90;99.90;;;;;;5003671;28;20112;-72
2023/12/13 02:45:58;;;;;;;3.42;1.52;;;8.00;99.90;;;;;;4991072;28;20133;-71
2023/12/13 02:48:24;;;;;;;3.78;1.65;;;7.90;99.90;;;;;;5003440;28;20040;-72
2023/12/13 02:50:52;;;;;;;4.30;2.08;;;7.90;99.90;;;;;;5005297;28;20030;-72
2023/12/13 02:53:19;;;;;;;3.13;1.60;;;8.00;99.90;;;;;;4986760;28;20026;-72
2023/12/13 02:55:45;;;;;;;3.75;2.47;;;7.90;99.90;;;;;;4988756;28;20050;-72
2023/12/13 02:58:10;;;;;;;6.75;1.95;;;7.90;99.90;;;;;;5005427;28;20034;-72
2023/12/13 03:00:36;;;;;;;6.47;1.98;;;7.80;99.90;;;;;;5007314;28;20608;-72
2023/12/13 03:03:02;;;;;;;3.95;1.98;;;7.90;99.90;;;;;;5002689;28;20033;-72
2023/12/13 03:05:28;;;;;;;3.35;1.70;;;7.90;99.90;;;;;;5005598;28;20561;-72
2023/12/13 03:07:53;;;;;;;2.67;1.65;;;7.90;99.90;;;;;;5004290;28;20117;-72
2023/12/13 03:10:19;;;;;;;4.10;2.08;;;7.90;99.90;;;;;;4990181;28;20453;-72
2023/12/13 03:12:45;;;;;;;5.75;2.00;;;7.90;99.90;;;;;;4989036;28;20046;-72
2023/12/13 03:15:10;;;;;;;4.55;1.40;;;7.90;99.90;;;;;;5005972;28;20377;-72
2023/12/13 03:17:36;;;;;;;2.33;1.20;;;7.90;99.90;;;;;;4998421;28;20107;-72
2023/12/13 03:20:03;;;;;;;4.97;1.50;;;7.90;99.90;;;;;;5009911;28;20519;-72
2023/12/13 03:22:30;;;;;;;4.30;2.40;;;7.90;99.90;;;;;;5004915;28;20940;-72
2023/12/13 03:24:58;;;;;;;3.65;1.75;;;7.80;99.90;;;;;;5005501;28;20070;-72
2023/12/13 03:27:24;;;;;;;5.10;2.20;;;7.90;99.90;;;;;;4993837;28;20546;-72
2023/12/13 03:29:50;;;;;;;5.13;2.10;;;7.90;99.90;;;;;;4994007;28;20112;-72
2023/12/13 03:32:15;;;;;;;4.22;1.23;;;7.90;99.90;;;;;;5009424;28;20042;-72
2023/12/13 03:34:42;;;;;;;3.63;1.63;;;7.90;99.90;;;;;;5008852;28;20117;-72
2023/12/13 03:37:08;;;;;;;4.90;1.63;;;7.90;99.90;;;;;;5024574;28;20050;-72
2023/12/13 03:39:34;;;;;;;6.13;2.22;;;8.00;99.90;;;;;;5007849;28;20045;-72
2023/12/13 03:42:00;;;;;;;4.63;1.83;;;7.90;99.90;;;;;;5009916;28;20053;-72
2023/12/13 03:44:25;;;;;;;2.95;1.08;;;8.00;99.90;;;;;;5007559;28;20523;-72
2023/12/13 03:46:51;;;;;;;3.90;1.70;;;7.90;99.90;;;;;;4990600;28;20113;-72
2023/12/13 03:49:16;;;;;;;4.90;2.35;;;8.00;99.90;;;;;;5008884;28;20646;-72
2023/12/13 03:51:46;;;;;;;4.47;1.48;;;8.00;99.90;;;;;;5006050;28;20034;-72
2023/12/13 03:54:12;;;;;;;3.88;1.58;;;8.00;99.90;;;;;;4988402;28;20034;-72
2023/12/13 03:56:38;;;;;;;4.22;1.60;;;8.00;99.90;;;;;;5009855;28;20050;-72
2023/12/13 03:59:04;;;;;;;5.18;2.00;;;8.00;99.90;;;;;;5004914;28;20070;-72
2023/12/13 04:01:29;;;;;;;4.75;1.83;;;8.00;99.90;;;;;;5009743;28;20033;-72
2023/12/13 04:03:55;;;;;;;4.43;1.92;;;8.00;99.90;;;;;;5007937;28;20038;-72
2023/12/13 04:06:21;;;;;;;7.47;2.38;;;8.00;99.90;;;;;;5019398;28;20084;-72
2023/12/13 04:08:46;;;;;;;2.78;1.45;;;8.00;99.90;;;;;;5004933;28;20069;-72
2023/12/13 04:11:12;;;;;;;3.80;2.35;;;8.00;99.90;;;;;;5007638;28;20403;-72
2023/12/13 04:13:37;;;;;;;3.80;1.38;;;8.00;99.90;;;;;;5005956;28;20101;-72
2023/12/13 04:16:03;;;;;;;4.75;1.80;;;8.00;99.90;;;;;;5008001;28;20034;-72
2023/12/13 04:18:29;;;;;;;6.30;2.25;;;8.00;99.90;;;;;;5009723;28;20037;-72
2023/12/13 04:20:55;;;;;;;4.90;2.30;;;8.00;99.90;;;;;;4988817;28;20129;-72
2023/12/13 04:23:20;;;;;;;3.80;1.75;;;8.00;99.90;;;;;;5004548;28;20041;-72
2023/12/13 04:25:46;;;;;;;5.97;2.10;;;8.00;99.90;;;;;;4991107;28;20042;-72
2023/12/13 04:28:11;;;;;;;3.45;2.10;;;8.00;99.90;;;;;;5008741;28;20068;-72
2023/12/13 04:30:37;;;;;;;5.65;2.00;;;8.00;99.90;;;;;;5006083;28;20085;-72
2023/12/13 04:33:03;;;;;;;4.90;2.05;;;8.00;99.90;;;;;;5009823;28;20446;-72
2023/12/13 04:35:28;;;;;;;3.85;1.80;;;8.10;99.90;;;;;;5008358;28;20041;-72
2023/12/13 04:37:54;;;;;;;3.72;1.98;;;8.00;99.90;;;;;;5003560;28;20046;-72
2023/12/13 04:40:20;;;;;;;5.80;2.60;;;8.00;99.90;;;;;;5008960;28;20069;-72
2023/12/13 04:42:45;;;;;;;6.32;1.90;;;8.00;99.90;;;;;;5008393;28;20046;-71
2023/12/13 04:45:11;;;;;;;3.05;1.52;;;8.00;99.90;;;;;;5007395;28;20088;-72
2023/12/13 04:47:37;;;;;;;6.85;2.72;;;8.10;99.90;;;;;;5008011;28;20074;-72
2023/12/13 04:50:03;;;;;;;6.00;2.25;;;8.00;99.90;;;;;;5005556;28;20621;-72
2023/12/13 04:52:29;;;;;;;6.28;2.08;;;8.00;99.90;;;;;;4988426;28;20068;-72
2023/12/13 04:54:54;;;;;;;5.57;1.75;;;8.00;99.90;;;;;;5008935;28;20053;-72
2023/12/13 04:57:20;;;;;;;2.60;1.85;;;8.10;99.90;;;;;;5004069;28;20092;-72
2023/12/13 04:59:46;;;;;;;12.70;2.35;;;8.00;99.90;;;;;;4991940;28;20049;-72
2023/12/13 05:02:11;;;;;;;5.68;2.30;;;8.00;99.90;;;;;;5024076;28;20137;-72
2023/12/13 05:04:37;;;;;;;5.05;2.25;;;8.00;99.90;;;;;;5008027;28;20046;-72
2023/12/13 05:07:03;;;;;;;6.35;2.53;;;8.00;99.90;;;;;;5005924;28;20038;-72
2023/12/13 05:09:29;;;;;;;9.43;2.70;;;8.00;99.90;;;;;;4991965;28;20176;-72
2023/12/13 05:11:54;;;;;;;7.18;1.90;;;8.00;99.90;;;;;;5006001;28;20124;-72
2023/12/13 05:14:20;;;;;;;6.53;2.33;;;8.10;99.90;;;;;;5008876;28;20042;-72
2023/12/13 05:16:46;;;;;;;5.28;2.42;;;8.10;99.90;;;;;;5006288;28;20425;-71
2023/12/13 05:19:12;;;;;;;6.35;2.65;;;8.00;99.90;;;;;;5019289;28;20042;-72
2023/12/13 05:21:37;;;;;;;5.13;2.47;;;8.00;99.90;;;;;;5007103;28;20479;-71
2023/12/13 05:24:03;;;;;;;4.82;2.35;;;8.00;99.90;;;;;;5005080;28;20053;-72
2023/12/13 05:26:28;;;;;;;8.23;3.00;;;8.00;99.90;;;;;;4999257;28;20061;-71
2023/12/13 05:28:54;;;;;;;5.57;2.63;;;8.00;99.90;;;;;;5007814;28;20399;-71
2023/12/13 05:31:21;;;;;;;5.88;2.30;;;8.00;99.90;;;;;;5007782;28;20124;-71
2023/12/13 05:33:50;;;;;;;3.90;1.67;;;8.00;99.90;;;;;;5006255;28;20037;-72
2023/12/13 05:36:16;;;;;;;7.63;2.17;;;8.00;99.90;;;;;;5004364;28;20091;-72
2023/12/13 05:38:43;;;;;;;9.13;2.13;;;8.00;99.90;;;;;;5004496;28;20450;-72
2023/12/13 05:41:09;;;;;;;7.38;2.35;;;8.00;99.90;;;;;;4995948;28;20502;-72
2023/12/13 05:43:35;;;;;;;7.00;2.10;;;8.00;99.90;;;;;;5005637;28;20046;-72
2023/12/13 05:46:02;;;;;;;5.80;2.08;;;8.10;99.90;;;;;;5006562;28;20041;-72
2023/12/13 05:48:27;;;;;;;8.50;2.65;;;8.00;99.90;;;;;;5000426;28;20057;-71
2023/12/13 05:50:53;;;;;;;6.70;2.15;;;8.00;99.90;;;;;;5006900;28;20034;-72
2023/12/13 05:53:19;;;;;;;5.30;2.90;;;8.00;99.90;;;;;;5005219;28;20057;-72
2023/12/13 05:55:44;;;;;;;5.47;1.85;;;8.10;99.90;;;;;;5000346;28;20038;-72
2023/12/13 05:58:10;;;;;;;4.78;2.28;;;8.00;99.90;;;;;;5005918;28;20523;-71
2023/12/13 06:00:36;;;;;;;4.45;2.03;;;8.00;99.90;;;;;;5008451;28;20045;-72
2023/12/13 06:03:01;;;;;;;6.13;2.22;;;8.10;99.90;;;;;;5005854;28;20117;-71
2023/12/13 06:05:27;;;;;;;4.68;2.25;;;8.00;99.90;;;;;;5007359;28;20459;-71
2023/12/13 06:07:52;;;;;;;5.28;2.28;;;8.00;99.90;;;;;;4997965;28;20037;-72
2023/12/13 06:10:18;;;;;;;6.88;2.75;;;8.00;99.90;;;;;;5005093;28;20091;-72
2023/12/13 06:12:44;;;;;;;6.57;3.08;;;8.00;99.90;;;;;;5005856;28;20496;-72
2023/12/13 06:15:09;;;;;;;8.95;2.22;;;8.00;99.90;;;;;;5004812;28;20037;-72
2023/12/13 06:17:35;;;;;;;6.00;2.95;;;8.00;99.90;;;;;;5002480;28;20092;-72
2023/12/13 06:20:01;;;;;;;7.28;2.33;;;8.00;99.90;;;;;;5006216;28;20038;-71
2023/12/13 06:22:27;;;;;;;5.85;2.40;;;8.00;99.90;;;;;;4998600;28;20502;-72
2023/12/13 06:24:52;;;;;;;7.20;2.55;;;8.10;99.90;;;;;;5003141;28;20096;-71
2023/12/13 06:27:18;;;;;;;6.28;2.58;;;8.00;99.90;;;;;;4991007;28;20487;-71
2023/12/13 06:29:44;;;;;;;6.63;2.45;;;8.10;99.90;;;;;;4989679;28;20088;-71
2023/12/13 06:32:09;;;;;;;3.75;2.33;;;8.10;99.90;;;;;;4989980;28;20069;-71
2023/12/13 06:34:35;;;;;;;6.05;2.78;;;8.00;99.90;;;;;;5005588;28;20049;-72
2023/12/13 06:37:01;;;;;;;6.43;2.75;;;8.00;99.90;;;;;;5003908;28;20117;-72
2023/12/13 06:39:26;;;;;;;7.50;3.03;;;8.00;99.90;;;;;;5003320;28;20598;-72
2023/12/13 06:41:52;;;;;;;6.72;2.88;;;8.10;99.90;;;;;;5005166;28;20383;-72
2023/12/13 06:44:18;;;;;;;6.07;2.22;;;8.10;99.90;;;;;;4988867;28;20491;-72
2023/12/13 06:46:43;;;;;;;5.10;2.30;;;8.00;99.90;;;;;;4997945;28;20297;-71
2023/12/13 06:49:09;;;;;;;6.68;2.42;;;7.90;99.90;;;;;;5008331;28;20030;-71
2023/12/13 06:51:38;;;;;;;5.53;2.40;;;8.00;99.90;;;;;;4989467;28;20562;-72
2023/12/13 06:54:04;;;;;;;7.97;3.78;;;8.10;99.90;;;;;;5003782;28;20037;-72
2023/12/13 06:56:29;;;;;;;7.10;2.60;;;8.10;99.90;;;;;;5005995;28;20266;-72
2023/12/13 06:58:55;;;;;;;5.82;2.65;;;8.00;99.90;;;;;;5009531;28;20034;-72
2023/12/13 07:01:22;;;;;;;4.88;2.13;;;8.00;99.90;;;;;;5010139;28;20439;-72
2023/12/13 07:03:47;;;;;;;6.63;2.00;;;8.10;99.90;;;;;;5008002;28;20038;-72
2023/12/13 07:06:16;;;;;;;6.18;2.47;;;8.00;99.90;;;;;;4993669;28;20080;-75
2023/12/13 07:08:42;;;;;;;5.35;2.05;;;8.00;99.90;;;;;;4987581;28;20109;-76
2023/12/13 07:11:08;;;;;;;6.15;2.65;;;8.00;99.90;;;;;;4990594;28;20039;-72
2023/12/13 07:13:34;;;;;;;8.82;3.00;;;8.00;99.90;;;;;;5005872;28;20194;-72
2023/12/13 07:16:00;;;;;;;6.82;2.28;;;8.00;99.90;;;;;;5004864;28;20136;-72
2023/12/13 07:18:25;;;;;;;5.22;2.60;;;8.00;99.90;;;;;;5010583;28;20042;-72
2023/12/13 07:20:52;;;;;;;6.68;2.72;;;8.00;99.90;;;;;;5008475;28;20104;-72
2023/12/13 07:23:18;;;;;;;7.25;2.65;;;8.00;99.90;;;;;;4986116;28;20042;-72
2023/12/13 07:25:43;;;;;;;6.55;2.55;;;8.10;99.90;;;;;;5006236;28;20034;-72
2023/12/13 07:28:10;;;;;;;4.72;2.33;;;8.10;99.90;;;;;;4993110;28;20038;-74
2023/12/13 07:30:36;;;;;;;4.10;2.22;;;8.10;99.90;;;;;;5004368;28;20126;-72
2023/12/13 07:33:03;;;;;;;5.97;2.35;;;8.10;99.90;;;;;;5026408;28;20133;-72
2023/12/13 07:35:28;;;;;;;4.07;2.15;;;8.10;99.90;;;;;;5007404;28;20116;-72
2023/12/13 07:37:55;;;;;;;7.07;2.90;;;8.10;99.90;;;;;;4992571;28;20132;-72
2023/12/13 07:40:20;;;;;;;5.03;2.03;;;8.10;99.90;;;;;;5007947;28;20049;-72
2023/12/13 07:42:46;;;;;;;4.95;1.88;;;8.10;99.90;;;;;;4993749;28;20037;-72
2023/12/13 07:45:13;;;;;;;4.72;2.17;;;8.00;99.90;;;;;;5009554;28;20095;-72
2023/12/13 07:47:39;;;;;;;4.85;1.98;;;8.10;99.90;;;;;;5007896;28;20565;-72
2023/12/13 07:50:06;;;;;;;5.15;2.30;;;8.10;99.90;;;;;;4993158;28;20030;-71
2023/12/13 07:52:32;;;;;;;4.82;1.95;;;8.10;99.90;;;;;;5008826;28;20112;-72
2023/12/13 07:54:58;;;;;;;4.85;2.33;;;8.10;99.90;;;;;;5010258;28;20118;-72
2023/12/13 07:57:23;;;;;;;5.45;2.53;;;8.10;99.90;;;;;;5007751;28;20045;-72
2023/12/13 07:59:49;;;;;;;8.27;3.20;;;8.10;99.90;;;;;;5008333;28;20034;-72
2023/12/13 08:02:15;;;;;;;5.18;2.05;;;8.10;99.90;;;;;;4992204;28;20491;-72
2023/12/13 08:04:41;;;;;;;5.50;2.80;;;8.10;99.90;;;;;;4994148;28;20088;-72
2023/12/13 08:07:07;;;;;;;6.03;2.78;;;8.10;99.90;;;;;;4989375;28;20038;-72
2023/12/13 08:09:32;;;;;;;6.30;2.90;;;8.10;99.90;;;;;;5017082;28;20087;-72
2023/12/13 08:11:58;;;;;;;10.15;2.78;;;8.10;99.90;;;;;;5008871;28;20396;-72
2023/12/13 08:14:30;;;;;;;5.88;2.30;;;8.10;99.90;;;;;;5008796;28;20568;-71
2023/12/13 08:16:56;;;;;;;4.05;1.95;;;8.10;99.90;;;;;;5002718;28;20117;-72
2023/12/13 08:19:22;;;;;;;6.63;2.45;;;8.20;99.90;;;;;;5005698;28;20073;-71
2023/12/13 08:21:48;;;;;;;6.45;2.80;;;8.10;99.90;;;;;;4990661;28;20069;-72
2023/12/13 08:24:13;;;;;;;7.72;3.42;;;8.20;99.90;;;;;;4990597;28;20045;-71
2023/12/13 08:26:39;;;;;;;9.38;2.80;;;8.10;99.90;;;;;;4988394;28;20034;-71
2023/12/13 08:29:05;;;;;;;7.75;2.25;;;8.20;99.90;;;;;;4985684;28;20050;-72
2023/12/13 08:31:31;;;;;;;4.03;1.85;;;8.20;99.90;;;;;;5009238;28;20400;-71
2023/12/13 08:33:57;;;;;;;7.75;2.28;;;8.20;99.90;;;;;;4990928;28;20403;-72
2023/12/13 08:36:23;;;;;;;5.45;2.55;;;8.20;99.90;;;;;;5006585;28;20042;-71
2023/12/13 08:38:48;;;;;;;6.13;1.75;;;8.20;99.90;;;;;;5000860;28;20041;-72
2023/12/13 08:41:15;;;;;;;5.70;2.50;;;8.20;99.90;;;;;;5006357;28;20542;-71
2023/12/13 08:43:40;;;;;;;6.93;3.53;;;8.20;99.90;;;;;;5006104;28;20511;-72
2023/12/13 08:46:06;;;;;;;4.25;2.35;;;8.20;99.90;;;;;;5009037;28;20049;-71
2023/12/13 08:48:33;;;;;;;8.07;2.60;;;8.20;99.90;;;;;;5007894;28;20036;-72
2023/12/13 08:50:59;;;;;;;7.18;3.05;;;8.20;99.90;;;;;;5005787;28;20050;-72
2023/12/13 08:53:24;;;;;;;5.18;2.75;;;8.20;99.90;;;;;;5006390;28;20038;-71
2023/12/13 08:55:50;;;;;;;4.72;2.28;;;8.20;99.90;;;;;;5008342;28;20085;-72
2023/12/13 08:58:16;;;;;;;5.80;2.08;;;8.20;99.90;;;;;;5006585;28;20052;-71
2023/12/13 09:00:42;;;;;;;4.82;1.77;;;8.30;99.90;;;;;;4989597;28;20042;-72
2023/12/13 09:03:08;;;;;;;9.93;2.97;;;8.20;99.90;;;;;;4986190;28;20038;-71
2023/12/13 09:05:35;;;;;;;5.97;2.80;;;8.20;99.90;;;;;;5005770;28;20050;-72
2023/12/13 09:08:01;;;;;;;6.95;3.15;;;8.30;99.90;;;;;;5005100;28;20499;-71
2023/12/13 09:10:29;;;;;;;5.63;1.92;;;8.30;99.90;;;;;;5008805;28;20045;-71
2023/12/13 09:12:55;;;;;;;5.63;2.25;;;8.30;99.90;;;;;;5006509;28;20121;-73
2023/12/13 09:15:21;;;;;;;5.70;2.38;;;8.30;99.90;;;;;;5004426;28;20201;-73
2023/12/13 09:17:47;;;;;;;8.30;3.05;;;8.30;99.90;;;;;;5005772;28;20488;-72
2023/12/13 09:20:15;;;;;;;6.05;2.72;;;8.40;99.90;;;;;;4989036;28;20045;-72
2023/12/13 09:22:44;;;;;;;6.68;2.72;;;8.40;99.90;;;;;;4985916;28;20042;-72
2023/12/13 09:25:16;;;;;;;9.82;3.00;;;8.30;99.90;;;;;;5005841;28;20119;-72
2023/12/13 09:27:43;;;;;;;6.90;2.83;;;8.40;99.90;;;;;;4991505;28;20033;-72
2023/12/13 09:30:09;;;;;;;6.90;2.00;;;8.40;99.90;;;;;;4989516;28;20050;-72
2023/12/13 09:32:35;;;;;;;4.88;2.47;;;8.40;99.90;;;;;;5000297;28;20173;-72
2023/12/13 09:35:01;;;;;;;8.48;3.00;;;8.40;99.90;;;;;;5000405;28;20208;-72
2023/12/13 09:37:26;;;;;;;7.40;2.63;;;8.50;99.90;;;;;;5003297;28;20073;-72
2023/12/13 09:39:52;;;;;;;7.57;3.20;;;8.40;99.90;;;;;;5005497;28;20045;-72
2023/12/13 09:42:18;;;;;;;11.35;2.92;;;8.40;99.90;;;;;;5001738;28;20042;-72
2023/12/13 09:44:48;;;;;;;8.15;3.45;;;8.40;99.90;;;;;;5000743;28;20034;-72
2023/12/13 09:47:16;;;;;;;7.32;2.08;;;8.40;99.90;;;;;;5000850;28;20025;-72
2023/12/13 09:49:42;;;;;;;7.13;3.58;;;8.50;99.90;;;;;;5018850;28;20041;-72
2023/12/13 09:52:09;;;;;;;7.90;2.67;;;8.50;99.90;;;;;;5000716;28;20038;-72
2023/12/13 09:54:40;;;;;;;6.63;2.33;;;8.50;99.90;;;;;;5001124;28;20052;-71
2023/12/13 09:57:06;;;;;;;6.45;3.00;;;8.50;99.90;;;;;;5000949;28;20491;-72
2023/12/13 09:59:31;;;;;;;8.93;2.67;;;8.50;99.90;;;;;;5002817;28;20040;-71
2023/12/13 10:01:57;;;;;;;6.95;2.63;;;8.50;99.90;;;;;;5001527;28;20038;-71
2023/12/13 10:04:27;;;;;;;6.55;2.80;;;8.50;99.90;;;;;;5005179;28;20041;-71
2023/12/13 10:06:54;;;;;;;6.35;2.72;;;8.50;99.90;;;;;;5001724;28;20474;-71
2023/12/13 10:09:19;;;;;;;6.57;3.15;;;8.60;99.90;;;;;;5001553;28;20139;-73
2023/12/13 10:11:45;;;;;;;7.65;3.53;;;8.50;99.90;;;;;;4989730;28;20479;-72
2023/12/13 10:14:12;;;;;;;7.60;3.25;;;8.50;99.90;;;;;;5003061;28;20045;-72
2023/12/13 10:16:40;;;;;;;9.25;3.38;;;8.60;99.90;;;;;;5003952;28;20057;-72
2023/12/13 10:19:06;;;;;;;7.28;3.33;;;8.60;99.90;;;;;;5003785;28;20045;-72
2023/12/13 10:21:36;;;;;;;7.68;2.72;;;8.60;99.90;;;;;;4982588;28;20042;-72
2023/12/13 10:24:05;;;;;;;6.75;2.80;;;8.60;99.90;;;;;;5017731;28;20038;-71
2023/12/13 10:26:38;;;;;;;6.20;2.40;;;8.60;99.90;;;;;;5002102;28;20030;-72
2023/12/13 10:29:04;;;;;;;7.22;2.60;;;8.60;99.90;;;;;;5002639;28;20052;-71
2023/12/13 10:31:33;;;;;;;4.40;1.92;;;8.60;99.90;;;;;;5007264;28;20046;-71
2023/12/13 10:33:59;;;;;;;8.63;3.45;;;8.60;99.90;;;;;;5002144;28;20084;-71
2023/12/13 10:36:28;;;;;;;5.60;2.67;;;8.60;99.90;;;;;;5000694;28;20046;-72
2023/12/13 10:38:54;;;;;;;5.55;2.50;;;8.60;99.90;;;;;;5003754;28;20223;-72
2023/12/13 10:41:27;;;;;;;7.40;2.97;;;8.60;99.90;;;;;;4997481;28;20034;-72
2023/12/13 10:43:57;;;;;;;6.65;2.47;;;8.60;99.90;;;;;;5000992;28;20040;-72
2023/12/13 10:46:27;;;;;;;5.53;2.10;;;8.60;99.90;;;;;;5012628;28;20108;-71
2023/12/13 10:48:54;;;;;;;8.73;3.22;;;8.60;99.90;;;;;;4981114;28;20048;-72
2023/12/13 10:51:22;;;;;;;6.25;2.65;;;8.60;99.90;;;;;;4998710;28;20088;-71
2023/12/13 10:53:48;;;;;;;8.05;3.05;;;8.60;99.90;;;;;;4995368;28;20458;-72
2023/12/13 10:56:18;;;;;;;7.07;2.45;;;8.60;99.90;;;;;;4999211;28;20038;-71
2023/12/13 10:58:46;;;;;;;6.55;2.58;;;8.60;99.90;;;;;;5003438;28;20034;-71
2023/12/13 11:01:14;;;;;;;8.35;3.70;;;8.60;99.90;;;;;;4987279;28;20038;-71
2023/12/13 11:03:57;;;;;;;6.38;3.00;;;8.60;99.90;;;;;;5003722;28;20046;-71
2023/12/13 11:06:22;;;;;;;7.53;2.60;;;8.60;99.90;;;;;;4981006;28;20057;-71
2023/12/13 11:08:48;;;;;;;8.52;3.17;;;8.60;99.90;;;;;;5000868;28;20033;-72
2023/12/13 11:11:16;;;;;;;8.88;3.47;;;8.60;99.90;;;;;;5001706;28;20033;-71
2023/12/13 11:13:49;;;;;;;6.68;2.38;;;8.60;99.90;;;;;;5007418;28;20034;-71
2023/12/13 11:16:16;;;;;;;10.02;3.15;;;8.60;99.90;;;;;;5004020;28;20052;-72
2023/12/13 11:18:43;;;;;;;6.72;3.28;;;8.70;99.90;;;;;;5003434;28;20038;-71
2023/12/13 11:21:09;;;;;;;4.85;2.15;;;8.70;99.90;;;;;;4985098;28;20045;-72
2023/12/13 11:23:39;;;;;;;7.18;2.83;;;8.70;99.90;;;;;;4988416;28;20049;-71
2023/12/13 11:26:14;;;;;;;5.63;2.72;;;8.70;99.90;;;;;;4984515;28;20057;-71
2023/12/13 11:28:40;;;;;;;8.75;2.45;;;8.70;99.90;;;;;;5006849;28;20040;-71
2023/12/13 11:31:10;;;;;;;8.02;3.13;;;8.70;99.90;;;;;;5003903;28;20257;-71
2023/12/13 11:33:36;;;;;;;7.50;3.13;;;8.70;99.90;;;;;;5006324;28;20168;-71
2023/12/13 11:36:10;;;;;;;5.60;2.70;;;8.70;99.90;;;;;;5005622;28;20516;-71
2023/12/13 11:38:36;;;;;;;6.05;2.47;;;8.70;99.90;;;;;;4997849;28;20439;-72
2023/12/13 11:41:04;;;;;;;6.57;3.05;;;8.70;99.90;;;;;;4987338;28;20175;-71
2023/12/13 11:43:30;;;;;;;7.95;2.80;;;8.70;99.90;;;;;;5003072;28;20050;-72
2023/12/13 11:45:56;;;;;;;6.53;2.85;;;8.70;99.90;;;;;;5009271;28;20044;-72
2023/12/13 11:48:22;;;;;;;5.82;2.42;;;8.70;99.90;;;;;;5007455;28;20052;-71
2023/12/13 11:50:52;;;;;;;8.85;2.33;;;8.70;99.90;;;;;;5021162;28;20403;-71
2023/12/13 11:53:17;;;;;;;5.97;2.58;;;8.70;99.90;;;;;;4996501;28;20308;-71
2023/12/13 11:55:43;;;;;;;5.85;2.55;;;8.70;99.90;;;;;;5024054;28;20038;-72
2023/12/13 11:58:09;;;;;;;6.10;1.90;;;8.70;99.90;;;;;;5004742;28;20150;-71
2023/12/13 12:00:34;;;;;;;6.53;2.45;;;8.70;99.90;;;;;;5008355;28;20041;-71
2023/12/13 12:03:00;;;;;;;6.70;2.00;;;8.70;99.90;;;;;;4992215;28;20128;-71
2023/12/13 12:05:27;;;;;;;9.00;3.35;;;8.80;99.90;;;;;;5008225;28;20522;-71
2023/12/13 12:08:04;;;;;;;6.82;1.92;;;8.70;99.90;;;;;;5003211;28;20104;-71
2023/12/13 12:10:31;;;;;;;10.90;3.15;;;8.80;99.90;;;;;;4992379;28;20045;-71
2023/12/13 12:13:00;;;;;;;8.85;3.05;;;8.70;99.90;;;;;;5008443;28;20369;-72
2023/12/13 12:15:26;;;;;;;4.40;2.38;;;8.70;99.90;;;;;;5004213;28;20495;-71
2023/12/13 12:17:52;;;;;;;7.95;3.08;;;8.80;99.90;;;;;;4989753;28;20041;-72
2023/12/13 12:20:17;;;;;;;10.18;3.42;;;8.70;99.90;;;;;;5025207;28;20050;-72
2023/12/13 12:22:46;;;;;;;11.15;3.35;;;8.80;99.90;;;;;;4997898;28;20053;-72
2023/12/13 12:25:12;;;;;;;8.70;3.03;;;8.80;99.90;;;;;;4999859;28;20038;-71
2023/12/13 12:27:45;;;;;;;9.40;2.90;;;8.70;99.90;;;;;;5006689;28;20443;-72
2023/12/13 12:30:12;;;;;;;7.43;2.28;;;8.80;99.90;;;;;;5005589;28;20069;-71
2023/12/13 12:32:37;;;;;;;8.32;3.65;;;8.80;99.90;;;;;;5003949;28;20038;-72
2023/12/13 12:35:05;;;;;;;6.30;2.60;;;8.80;99.90;;;;;;5006091;28;20100;-72
2023/12/13 12:37:30;;;;;;;6.50;2.67;;;8.80;99.90;;;;;;5007191;28;20487;-72
2023/12/13 12:39:56;;;;;;;10.80;3.58;;;8.80;99.90;;;;;;4985341;28;20046;-71
2023/12/13 12:42:22;;;;;;;9.63;3.50;;;8.80;99.90;;;;;;4997447;28;20045;-72
2023/12/13 12:44:48;;;;;;;10.38;3.60;;;8.80;99.90;;;;;;4988344;28;20046;-72
2023/12/13 12:47:14;;;;;;;14.63;4.43;;;8.80;99.90;;;;;;4999769;28;20038;-72
2023/12/13 12:49:40;;;;;;;7.75;4.13;;;8.90;99.90;;;;;;4980523;28;20581;-72
2023/12/13 12:52:06;;;;;;;6.82;2.70;;;8.90;99.90;;;;;;4998388;28;20420;-72